Time;durP1;ratioP1;P1;durP2;ratioP2;P2;SDS_P1;SDS_P2;PMS_P1;PMS_P2;Temp;Humidity;BMP_temperature;BMP_pressure;BME280_temperature;BME280_humidity;BME280_pressure;Samples;Min_cycle;Max_cycle;Signal;HPM_P1;HPM_P2
2022/12/30 00:02:19;;;;;;;80.05;27.27;;;;;;;3.39;77.39;98367.77;1816849;78;25653;-66
2022/12/30 00:04:46;;;;;;;70.05;25.85;;;;;;;3.37;77.53;98363.72;1740099;78;28128;-66
2022/12/30 00:07:12;;;;;;;51.63;20.85;;;;;;;3.33;77.78;98362.09;1776448;78;25474;-66
2022/12/30 00:09:38;;;;;;;34.25;15.78;;;;;;;3.31;77.87;98362.89;1740086;78;25529;-66
2022/12/30 00:34:30;;;;;;;35.68;13.58;;;;;;;3.54;78.23;98351.20;1830264;78;25647;-65
2022/12/30 00:36:58;;;;;;;32.35;13.40;;;;;;;3.59;77.99;98357.97;1802442;78;25758;-66
2022/12/30 00:39:24;;;;;;;32.88;15.20;;;;;;;3.62;78.01;98347.12;1802677;78;26115;-65
2022/12/30 00:44:35;;;;;;;48.55;19.48;;;;;;;3.65;77.89;98347.92;1806736;78;25666;-65
2022/12/30 00:47:03;;;;;;;46.53;18.40;;;;;;;3.63;77.85;98348.20;1789472;78;26058;-65
2022/12/30 00:57:43;;;;;;;26.17;12.45;;;;;;;3.60;78.06;98333.84;1830329;78;25601;-65
2022/12/30 01:00:13;;;;;;;20.40;11.45;;;;;;;3.59;78.05;98332.77;1830755;78;25594;-66
2022/12/30 01:02:39;;;;;;;31.00;14.38;;;;;;;3.58;78.02;98334.68;1803117;78;25670;-66
2022/12/30 01:05:06;;;;;;;36.58;15.13;;;;;;;3.61;77.91;98326.53;1740476;78;25649;-65
2022/12/30 01:07:33;;;;;;;40.43;16.50;;;;;;;3.63;78.08;98323.02;1802245;78;25587;-65
2022/12/30 01:09:59;;;;;;;34.40;15.68;;;;;;;3.67;77.86;98326.79;1776210;78;27440;-66
2022/12/30 01:12:26;;;;;;;33.98;15.83;;;;;;;3.71;77.87;98327.84;1776174;78;25687;-66
2022/12/30 01:14:54;;;;;;;32.58;15.18;;;;;;;3.71;78.27;98329.20;1802231;78;25642;-66
2022/12/30 01:17:25;;;;;;;29.70;14.23;;;;;;;3.71;78.10;98328.41;1802744;78;25535;-66
2022/12/30 01:19:52;;;;;;;41.35;17.45;;;;;;;3.73;78.06;98327.58;1777513;78;25757;-65
2022/12/30 01:22:18;;;;;;;27.45;12.55;;;;;;;3.74;78.06;98330.55;1802527;78;28280;-65
2022/12/30 01:24:44;;;;;;;24.35;11.83;;;;;;;3.76;78.08;98321.60;1802243;78;27227;-65
2022/12/30 01:27:11;;;;;;;30.08;14.03;;;;;;;3.76;78.08;98308.05;1802198;78;25712;-65
2022/12/30 01:29:41;;;;;;;29.67;15.25;;;;;;;3.77;78.02;98312.38;1771658;78;26093;-65
2022/12/30 01:32:11;;;;;;;35.20;15.30;;;;;;;3.76;78.01;98319.72;1751651;78;25489;-66
2022/12/30 01:34:38;;;;;;;27.85;14.05;;;;;;;3.76;78.08;98315.64;1772711;78;29530;-66
2022/12/30 01:37:05;;;;;;;22.17;12.25;;;;;;;3.73;78.12;98322.98;1802125;78;25446;-66
2022/12/30 01:39:32;;;;;;;23.20;11.68;;;;;;;3.69;78.20;98334.64;1771308;78;25499;-66
2022/12/30 01:41:59;;;;;;;30.80;15.30;;;;;;;3.70;78.31;98348.45;1776028;78;26415;-66
2022/12/30 01:45:00;;;;;;;42.75;19.87;;;;;;;3.71;78.29;98347.38;1776176;78;25668;-66
2022/12/30 01:47:59;;;;;;;42.08;19.90;;;;;;;3.69;78.39;98353.61;1802459;78;27092;-66
2022/12/30 01:50:36;;;;;;;42.60;19.35;;;;;;;3.71;78.28;98352.80;1802021;78;26263;-66
2022/12/30 01:53:06;;;;;;;41.02;17.07;;;;;;;3.78;78.19;98343.83;1830932;78;25586;-66
2022/12/30 01:55:50;;;;;;;28.77;13.62;;;;;;;3.85;78.04;98341.63;1830364;78;25562;-66
2022/12/30 01:58:21;;;;;;;44.48;18.35;;;;;;;3.90;77.93;98328.59;1802554;78;25713;-66
2022/12/30 02:00:48;;;;;;;28.32;14.05;;;;;;;3.96;77.84;98330.20;1802661;78;27382;-66
2022/12/30 02:03:14;;;;;;;31.05;13.58;;;;;;;4.03;77.79;98320.39;1802235;78;25696;-67
2022/12/30 02:05:43;;;;;;;27.02;12.30;;;;;;;4.09;77.77;98326.63;1829874;78;25654;-66
2022/12/30 02:08:14;;;;;;;42.03;18.05;;;;;;;4.11;77.70;98317.64;1776211;78;25230;-66
2022/12/30 02:10:48;;;;;;;38.73;17.70;;;;;;;4.14;77.70;98322.52;1802588;78;25485;-66
2022/12/30 02:13:17;;;;;;;36.63;16.40;;;;;;;4.12;77.86;98329.57;1801767;78;28141;-66
2022/12/30 02:15:59;;;;;;;33.55;16.50;;;;;;;4.10;77.93;98336.38;1751263;78;25701;-66
2022/12/30 02:18:52;;;;;;;43.20;19.23;;;;;;;4.08;77.92;98344.78;1801983;78;25625;-66
2022/12/30 02:21:52;;;;;;;50.30;20.88;;;;;;;4.07;77.90;98353.20;1801964;78;25523;-66
2022/12/30 02:25:02;;;;;;;39.35;16.30;;;;;;;4.04;77.95;98350.51;1829533;78;25650;-66
2022/12/30 02:27:55;;;;;;;37.00;14.23;;;;;;;4.02;78.02;98347.25;1830151;78;27409;-65
2022/12/30 02:30:31;;;;;;;47.13;19.07;;;;;;;4.01;77.99;98351.85;1830056;78;25456;-66
2022/12/30 02:33:13;;;;;;;38.50;16.52;;;;;;;4.03;77.88;98351.58;1800586;78;25472;-66
2022/12/30 02:36:07;;;;;;;35.48;15.18;;;;;;;4.06;77.77;98344.24;1829198;78;26688;-66
2022/12/30 02:39:06;;;;;;;37.60;17.15;;;;;;;4.09;77.67;98331.48;1802078;78;25596;-65
2022/12/30 02:44:46;;;;;;;24.87;11.43;;;;;;;4.13;77.48;98324.43;1829847;78;25740;-66
2022/12/30 02:47:29;;;;;;;32.10;14.45;;;;;;;4.15;77.39;98322.80;1829961;78;25602;-66
2022/12/30 02:52:50;;;;;;;46.28;18.50;;;;;;;4.16;77.41;98327.66;1829998;78;25654;-65
2022/12/30 02:55:18;;;;;;;33.80;13.72;;;;;;;4.14;77.34;98332.00;1802733;78;27604;-66
2022/12/30 02:57:44;;;;;;;38.10;15.78;;;;;;;4.13;77.43;98337.99;1750672;78;25924;-66
2022/12/30 03:06:36;;;;;;;36.28;14.68;;;;;;;4.06;77.50;98342.88;1829818;78;25374;-66
2022/12/30 03:11:12;;;;;;;36.90;16.17;;;;;;;4.00;77.67;98352.95;1802114;78;27378;-66
2022/12/30 03:12:22;;;;;;;33.67;16.73;;;;;;;3.97;77.82;98367.63;1825537;78;25641;-66
2022/12/30 03:14:59;;;;;;;44.13;18.32;;;;;;;3.94;77.97;98373.03;1802146;78;25694;-66
2022/12/30 03:17:36;;;;;;;34.05;15.18;;;;;;;3.94;77.98;98382.53;1830317;78;25370;-66
2022/12/30 03:20:13;;;;;;;28.47;15.18;;;;;;;3.96;77.97;98379.00;1818612;77;25469;-66
2022/12/30 03:28:17;;;;;;;21.85;11.03;;;;;;;4.08;77.66;98373.26;1798716;77;25780;-65
2022/12/30 03:30:51;;;;;;;20.80;10.85;;;;;;;4.10;77.63;98378.41;1844588;77;25590;-66
2022/12/30 03:33:19;;;;;;;19.77;10.10;;;;;;;4.12;77.57;98381.66;1808912;77;25493;-66
2022/12/30 03:36:09;;;;;;;23.83;10.95;;;;;;;4.13;77.56;98375.14;1803164;79;27062;-65
2022/12/30 03:38:38;;;;;;;18.98;9.40;;;;;;;4.12;77.62;98372.17;1796573;79;25675;-66
2022/12/30 03:41:08;;;;;;;20.05;9.95;;;;;;;4.11;77.67;98367.28;1769320;79;25495;-66
2022/12/30 03:43:36;;;;;;;14.80;7.85;;;;;;;4.11;77.71;98365.10;1796994;79;25634;-66
2022/12/30 03:46:02;;;;;;;31.42;12.90;;;;;;;4.11;77.80;98365.10;1770646;79;25438;-65
2022/12/30 03:48:29;;;;;;;23.50;10.43;;;;;;;4.13;77.66;98365.64;1770686;79;29515;-65
2022/12/30 03:50:55;;;;;;;31.23;14.38;;;;;;;4.17;77.69;98374.05;1740434;79;25683;-65
2022/12/30 03:53:21;;;;;;;31.07;14.60;;;;;;;4.19;77.68;98380.81;1745231;79;25656;-65
2022/12/30 03:55:47;;;;;;;32.28;14.35;;;;;;;4.26;77.63;98390.80;1745450;79;25619;-65
2022/12/30 03:58:13;;;;;;;32.58;14.58;;;;;;;4.31;77.90;98395.93;1745341;79;25620;-65
2022/12/30 04:00:39;;;;;;;25.90;12.95;;;;;;;4.34;77.75;98402.16;1770442;79;27636;-65
2022/12/30 04:03:06;;;;;;;28.98;13.48;;;;;;;4.38;77.67;98400.53;1742131;78;26570;-65
2022/12/30 04:05:32;;;;;;;34.00;13.88;;;;;;;4.44;77.55;98406.73;1795198;78;25463;-65
2022/12/30 04:07:58;;;;;;;22.05;11.53;;;;;;;4.46;77.49;98397.22;1794673;78;27601;-65
2022/12/30 04:10:25;;;;;;;26.97;11.85;;;;;;;4.49;77.47;98406.72;1794642;78;25618;-65
2022/12/30 04:12:51;;;;;;;30.97;12.30;;;;;;;4.55;77.34;98408.86;1769042;78;27368;-65
2022/12/30 04:15:17;;;;;;;28.27;11.73;;;;;;;4.61;77.25;98411.24;1768230;78;25671;-65
2022/12/30 04:17:44;;;;;;;32.63;13.65;;;;;;;4.68;77.11;98412.84;1766990;78;25653;-65
2022/12/30 04:20:10;;;;;;;21.77;9.85;;;;;;;4.73;76.96;98425.03;1768569;78;25517;-65
2022/12/30 04:22:37;;;;;;;17.50;9.48;;;;;;;4.74;76.93;98425.29;1795192;78;25689;-65
2022/12/30 04:25:03;;;;;;;23.02;11.03;;;;;;;4.76;76.95;98445.66;1768561;78;27362;-64
2022/12/30 04:27:29;;;;;;;23.80;10.53;;;;;;;4.81;76.92;98447.50;1743822;78;25491;-65
2022/12/30 04:29:56;;;;;;;21.00;9.63;;;;;;;4.82;76.79;98455.94;1794958;78;25470;-65
2022/12/30 04:32:22;;;;;;;19.57;9.73;;;;;;;4.84;76.77;98455.66;1768791;78;25497;-65
2022/12/30 04:34:48;;;;;;;75.55;33.35;;;;;;;4.85;76.72;98455.38;1764901;78;25452;-66
2022/12/30 04:37:15;;;;;;;39.38;21.00;;;;;;;4.90;76.54;98452.61;1763328;78;27545;-66
2022/12/30 04:39:41;;;;;;;73.25;39.48;;;;;;;4.96;76.12;98453.95;1743239;78;25524;-66
2022/12/30 04:42:07;;;;;;;62.17;27.22;;;;;;;5.00;76.27;98459.07;1794591;78;25692;-66
2022/12/30 04:44:34;;;;;;;62.98;24.77;;;;;;;5.06;76.19;98459.30;1768411;78;27617;-66
2022/12/30 04:47:00;;;;;;;66.07;29.45;;;;;;;5.13;76.02;98461.15;1768420;78;25530;-66
2022/12/30 04:49:26;;;;;;;48.25;23.98;;;;;;;5.15;75.79;98456.80;1769167;78;28426;-66
2022/12/30 04:51:52;;;;;;;58.42;31.90;;;;;;;5.17;75.71;98462.77;1768854;78;25896;-65
2022/12/30 04:54:19;;;;;;;60.90;35.43;;;;;;;5.18;75.74;98462.23;1755479;77;25456;-66
2022/12/30 04:56:45;;;;;;;319.95;223.70;;;;;;;5.17;75.77;98468.20;1814041;77;25481;-65
2022/12/30 04:59:11;;;;;;;81.95;52.05;;;;;;;5.14;75.71;98464.69;1814594;77;25682;-66
2022/12/30 05:01:37;;;;;;;48.83;26.02;;;;;;;5.14;75.69;98469.59;1744881;77;27494;-66
2022/12/30 05:04:04;;;;;;;213.40;145.80;;;;;;;5.13;75.76;98467.15;1739372;78;25749;-66
2022/12/30 05:06:30;;;;;;;85.60;50.95;;;;;;;5.14;75.62;98472.84;1790180;78;25708;-65
2022/12/30 05:08:56;;;;;;;200.00;127.22;;;;;;;5.17;75.58;98473.63;1746869;78;26726;-65
2022/12/30 05:11:22;;;;;;;126.40;80.70;;;;;;;5.18;75.43;98473.89;1817156;78;25406;-65
2022/12/30 05:13:48;;;;;;;154.93;93.40;;;;;;;5.19;75.46;98482.32;1817291;78;27680;-65
2022/12/30 05:16:16;;;;;;;76.33;48.55;;;;;;;5.21;75.27;98477.40;1790291;78;26667;-66
2022/12/30 05:18:42;;;;;;;23.87;13.72;;;;;;;5.23;75.00;98479.83;1790798;78;25451;-66
2022/12/30 05:21:08;;;;;;;42.03;23.25;;;;;;;5.24;74.82;98475.47;1817256;78;25683;-66
2022/12/30 05:26:19;;;;;;;55.73;32.88;;;;;;;5.31;74.67;98490.11;1820178;78;25669;-66
2022/12/30 05:28:48;;;;;;;25.40;14.35;;;;;;;5.33;74.61;98488.47;1816780;77;25690;-66
2022/12/30 05:31:16;;;;;;;43.98;25.20;;;;;;;5.37;74.71;98497.67;1790647;78;25681;-66
2022/12/30 05:33:43;;;;;;;23.77;14.38;;;;;;;5.37;74.76;98498.50;1790797;78;25611;-65
2022/12/30 05:36:11;;;;;;;45.63;25.57;;;;;;;5.34;74.54;98496.34;1739218;78;25455;-66
2022/12/30 05:38:38;;;;;;;35.13;19.85;;;;;;;5.31;74.98;98504.23;1816858;78;27063;-66
2022/12/30 05:41:06;;;;;;;131.97;75.67;;;;;;;5.28;74.86;98501.55;1812593;77;25940;-66
2022/12/30 05:43:32;;;;;;;190.12;116.35;;;;;;;5.27;74.98;98502.65;1817079;77;25566;-66
2022/12/30 05:45:59;;;;;;;105.85;58.48;;;;;;;5.27;74.89;98511.59;1790516;78;25596;-66
2022/12/30 05:48:30;;;;;;;173.30;90.70;;;;;;;5.29;75.11;98519.46;1790346;78;25750;-66
2022/12/30 05:50:56;;;;;;;450.83;236.30;;;;;;;5.32;74.97;98530.34;1790921;78;27249;-67
2022/12/30 05:53:23;;;;;;;160.72;69.35;;;;;;;5.34;74.94;98528.13;1816575;77;25626;-66
2022/12/30 05:55:50;;;;;;;44.10;19.42;;;;;;;5.35;74.85;98529.74;1816938;78;25402;-66
2022/12/30 05:58:16;;;;;;;188.60;75.62;;;;;;;5.37;74.92;98531.64;1739624;78;26493;-66
2022/12/30 06:00:42;;;;;;;65.05;24.05;;;;;;;5.35;75.04;98526.48;1816709;77;25417;-66
2022/12/30 06:03:09;;;;;;;64.58;25.45;;;;;;;5.34;74.98;98537.10;1790339;77;28203;-67
2022/12/30 06:05:35;;;;;;;20.23;9.65;;;;;;;5.33;75.04;98542.28;1787565;77;25750;-66
2022/12/30 06:08:02;;;;;;;20.05;10.85;;;;;;;5.30;75.17;98529.26;1787510;77;25675;-67
2022/12/30 06:10:28;;;;;;;42.03;20.30;;;;;;;5.32;75.33;98537.92;1842369;77;25632;-67
2022/12/30 06:12:55;;;;;;;43.60;20.45;;;;;;;5.34;75.31;98541.72;1814200;77;25490;-66
2022/12/30 06:15:21;;;;;;;387.85;194.47;;;;;;;5.37;75.20;98546.05;1814406;77;27456;-66
2022/12/30 06:17:47;;;;;;;133.65;56.50;;;;;;;5.38;75.35;98545.48;1813767;77;25658;-66
2022/12/30 06:20:18;;;;;;;53.17;21.82;;;;;;;5.38;75.30;98547.66;1814845;77;25473;-67
2022/12/30 06:22:52;;;;;;;38.48;18.12;;;;;;;5.36;75.33;98560.71;1787628;77;25413;-66
2022/12/30 06:25:24;;;;;;;109.92;45.00;;;;;;;5.34;75.41;98564.81;1814224;77;25637;-66
2022/12/30 06:27:50;;;;;;;259.55;96.67;;;;;;;5.32;75.56;98570.53;1837544;77;28743;-66
2022/12/30 06:30:17;;;;;;;148.32;59.33;;;;;;;5.33;75.65;98582.22;1787490;77;25616;-66
2022/12/30 06:32:44;;;;;;;152.43;59.60;;;;;;;5.30;75.89;98584.14;1787871;77;25439;-66
2022/12/30 06:35:11;;;;;;;62.95;27.55;;;;;;;5.27;76.10;98585.52;1814538;77;25865;-66
2022/12/30 06:37:38;;;;;;;539.15;225.72;;;;;;;5.28;76.52;98589.85;1788066;77;25621;-67
2022/12/30 06:40:06;;;;;;;403.02;175.42;;;;;;;5.26;76.85;98597.45;1814347;77;27394;-67
2022/12/30 06:42:32;;;;;;;360.82;154.68;;;;;;;5.28;76.76;98610.23;1787956;77;25674;-66
2022/12/30 06:44:58;;;;;;;68.35;28.77;;;;;;;5.31;76.80;98610.20;1744974;77;25652;-67
2022/12/30 06:47:25;;;;;;;209.50;81.00;;;;;;;5.34;76.75;98615.91;1744799;77;25484;-66
2022/12/30 06:49:51;;;;;;;162.62;54.50;;;;;;;5.38;76.80;98631.09;1788161;77;25466;-66
2022/12/30 06:52:17;;;;;;;128.15;43.55;;;;;;;5.34;77.04;98629.49;1814413;77;27446;-67
2022/12/30 06:54:43;;;;;;;824.23;313.87;;;;;;;5.37;77.04;98641.70;1814201;77;25448;-66
2022/12/30 06:57:09;;;;;;;210.90;64.90;;;;;;;5.36;77.06;98631.37;1787689;77;25555;-66
2022/12/30 06:59:36;;;;;;;1118.95;403.80;;;;;;;5.39;76.98;98630.02;1813806;77;25404;-66
2022/12/30 07:02:02;;;;;;;482.12;168.87;;;;;;;5.37;77.19;98634.38;1814284;77;25612;-66
2022/12/30 07:04:28;;;;;;;394.05;118.28;;;;;;;5.34;77.67;98628.67;1787523;77;27446;-67
2022/12/30 07:06:55;;;;;;;202.87;63.52;;;;;;;5.33;77.51;98639.28;1745067;77;27494;-67
2022/12/30 07:09:21;;;;;;;1214.63;436.15;;;;;;;5.31;77.68;98633.30;1745183;77;25497;-66
2022/12/30 07:11:47;;;;;;;166.70;49.98;;;;;;;5.27;77.80;98637.14;1814791;77;25687;-67
2022/12/30 07:14:13;;;;;;;272.42;78.37;;;;;;;5.27;78.06;98638.50;1813955;77;25474;-67
2022/12/30 07:16:40;;;;;;;141.53;45.80;;;;;;;5.29;78.04;98639.59;1787942;77;27340;-67
2022/12/30 07:19:06;;;;;;;315.27;95.50;;;;;;;5.30;78.20;98647.45;1814237;77;25497;-67
2022/12/30 07:21:32;;;;;;;261.95;86.20;;;;;;;5.32;78.37;98647.18;1787790;77;25744;-67
2022/12/30 07:23:59;;;;;;;795.55;307.40;;;;;;;5.33;78.12;98645.55;1814536;77;25710;-67
2022/12/30 07:26:25;;;;;;;210.60;69.70;;;;;;;5.37;78.19;98645.78;1814220;77;25665;-67
2022/12/30 07:29:04;;;;;;;407.60;145.77;;;;;;;5.36;78.39;98652.31;1788188;77;27439;-66
2022/12/30 07:31:37;;;;;;;234.95;81.22;;;;;;;5.39;78.15;98659.91;1842323;77;25551;-67
2022/12/30 07:34:04;;;;;;;131.95;46.85;;;;;;;5.42;78.18;98658.53;1815515;77;25656;-66
2022/12/30 07:36:30;;;;;;;467.90;166.53;;;;;;;5.41;78.39;98661.78;1814338;77;26018;-66
2022/12/30 07:38:58;;;;;;;1154.88;506.17;;;;;;;5.40;78.38;98662.89;1787982;77;25595;-66
2022/12/30 07:41:26;;;;;;;337.65;116.97;;;;;;;5.38;78.50;98658.27;1787921;77;27502;-66
2022/12/30 07:43:52;;;;;;;734.13;329.32;;;;;;;5.34;78.51;98672.97;1788117;77;25451;-66
2022/12/30 07:46:19;;;;;;;269.07;98.50;;;;;;;5.34;78.45;98683.02;1787880;77;25458;-66
2022/12/30 07:48:46;;;;;;;354.05;144.65;;;;;;;5.31;78.65;98689.84;1814552;77;26135;-66
2022/12/30 07:51:15;;;;;;;94.25;37.50;;;;;;;5.27;78.58;98682.77;1787950;77;25680;-66
2022/12/30 07:53:42;;;;;;;161.30;67.40;;;;;;;5.26;78.92;98696.09;1788273;77;27449;-66
2022/12/30 07:56:12;;;;;;;86.47;40.48;;;;;;;5.30;78.72;98700.98;1814247;77;25746;-66
2022/12/30 07:58:39;;;;;;;55.20;28.75;;;;;;;5.32;78.68;98711.83;1814949;77;25438;-66
2022/12/30 08:01:11;;;;;;;53.75;29.27;;;;;;;5.35;78.82;98709.92;1784082;77;25428;-66
2022/12/30 08:03:39;;;;;;;99.28;47.33;;;;;;;5.36;78.98;98711.53;1814491;77;25565;-66
2022/12/30 08:06:10;;;;;;;70.12;34.90;;;;;;;5.36;78.87;98710.18;1748383;77;28252;-67
2022/12/30 08:08:37;;;;;;;220.45;117.40;;;;;;;5.35;78.90;98715.36;1790492;77;25877;-66
2022/12/30 08:11:05;;;;;;;68.80;36.17;;;;;;;5.33;78.83;98712.13;1790206;77;25738;-66
2022/12/30 08:13:35;;;;;;;78.12;37.83;;;;;;;5.32;79.20;98720.55;1816958;77;26055;-67
2022/12/30 08:16:11;;;;;;;73.37;38.15;;;;;;;5.31;79.02;98727.87;1818088;77;25678;-67
2022/12/30 08:18:38;;;;;;;59.13;29.72;;;;;;;5.27;79.11;98727.61;1816918;77;27497;-67
2022/12/30 08:21:09;;;;;;;92.17;45.10;;;;;;;5.26;79.25;98735.50;1789958;77;25475;-67
2022/12/30 08:23:36;;;;;;;41.08;21.97;;;;;;;5.30;79.17;98741.20;1741812;77;25780;-66
2022/12/30 08:26:09;;;;;;;39.88;21.05;;;;;;;5.29;79.60;98746.35;1790046;77;27126;-66
2022/12/30 08:28:36;;;;;;;40.90;22.10;;;;;;;5.33;79.42;98749.34;1817767;77;25434;-66
2022/12/30 08:31:19;;;;;;;70.22;37.03;;;;;;;5.39;79.68;98761.83;1790364;77;27266;-67
2022/12/30 08:33:46;;;;;;;77.85;39.03;;;;;;;5.42;79.48;98760.45;1817084;77;25631;-66
2022/12/30 08:36:16;;;;;;;48.13;26.68;;;;;;;5.47;79.69;98753.08;1789969;77;25670;-66
2022/12/30 08:38:47;;;;;;;37.13;21.73;;;;;;;5.57;79.44;98763.66;1842422;77;25629;-66
2022/12/30 08:41:18;;;;;;;223.87;124.90;;;;;;;5.57;79.44;98763.66;1817890;77;25461;-67
2022/12/30 08:43:46;;;;;;;348.87;163.10;;;;;;;5.60;79.33;98763.92;1790881;77;27145;-66
2022/12/30 08:46:13;;;;;;;215.32;94.80;;;;;;;5.63;79.39;98778.86;1741756;77;25462;-67
2022/12/30 08:48:40;;;;;;;82.17;38.88;;;;;;;5.65;79.43;98783.48;1816926;77;25703;-68
2022/12/30 08:51:07;;;;;;;127.25;62.15;;;;;;;5.67;79.93;98778.56;1790488;77;25624;-67
2022/12/30 08:53:34;;;;;;;477.25;256.38;;;;;;;5.70;79.81;98784.01;1816819;77;25481;-67
2022/12/30 08:56:08;;;;;;;67.12;35.38;;;;;;;5.73;79.73;98791.05;1817051;77;27384;-67
2022/12/30 08:58:36;;;;;;;49.88;24.72;;;;;;;5.79;79.57;98791.86;1842623;77;25594;-67
2022/12/30 09:01:19;;;;;;;59.58;33.48;;;;;;;5.84;79.52;98789.67;1790489;77;25513;-68
2022/12/30 09:03:48;;;;;;;47.00;23.92;;;;;;;5.91;79.53;98790.17;1790075;78;25667;-67
2022/12/30 09:06:17;;;;;;;34.00;18.62;;;;;;;6.00;79.56;98789.86;1787218;79;25647;-67
2022/12/30 09:08:44;;;;;;;32.85;20.10;;;;;;;6.11;79.28;98783.02;1787564;79;28416;-67
2022/12/30 09:11:16;;;;;;;27.07;14.73;;;;;;;6.21;78.74;98779.41;1761297;79;25795;-67
2022/12/30 09:13:43;;;;;;;48.90;28.25;;;;;;;6.26;78.47;98773.95;1761267;79;25507;-67
2022/12/30 09:16:15;;;;;;;25.90;14.98;;;;;;;6.33;78.71;98794.85;1760247;79;26213;-67
2022/12/30 09:18:42;;;;;;;30.80;18.52;;;;;;;6.42;78.54;98796.98;1761320;79;25521;-67
2022/12/30 09:21:10;;;;;;;30.37;18.02;;;;;;;6.52;78.52;98786.84;1760426;79;27418;-67
2022/12/30 09:23:37;;;;;;;32.90;18.57;;;;;;;6.65;78.80;98792.75;1787022;79;25684;-67
2022/12/30 09:26:05;;;;;;;26.27;14.68;;;;;;;6.77;78.46;98789.66;1787189;79;25693;-67
2022/12/30 09:28:33;;;;;;;21.90;13.85;;;;;;;6.86;77.52;98793.93;1760270;79;26075;-67
2022/12/30 09:30:59;;;;;;;22.98;14.03;;;;;;;6.93;77.19;98788.96;1787628;79;25678;-67
2022/12/30 09:33:25;;;;;;;22.30;13.40;;;;;;;7.03;77.13;98780.69;1760207;79;27375;-67
2022/12/30 09:35:52;;;;;;;20.88;12.40;;;;;;;7.07;76.50;98764.59;1760053;79;26031;-67
2022/12/30 09:38:18;;;;;;;19.85;11.05;;;;;;;7.08;75.94;98751.21;1761199;79;25806;-67
2022/12/30 09:41:11;;;;;;;19.95;10.35;;;;;;;7.06;75.56;98758.06;1816648;77;25469;-67
2022/12/30 09:44:02;;;;;;;19.67;11.68;;;;;;;7.02;75.24;98756.45;1842607;77;25423;-67
2022/12/30 09:46:52;;;;;;;19.57;11.63;;;;;;;7.09;75.95;98767.84;1814303;77;27976;-67
2022/12/30 09:49:47;;;;;;;25.68;14.63;;;;;;;7.27;75.35;98778.56;1842168;77;25674;-66
2022/12/30 09:52:47;;;;;;;20.85;12.10;;;;;;;7.42;75.13;98770.52;1841966;77;25424;-67
2022/12/30 09:55:18;;;;;;;20.30;13.05;;;;;;;7.66;74.76;98774.59;1841804;77;25610;-66
2022/12/30 09:57:49;;;;;;;21.37;11.80;;;;;;;7.88;74.31;98775.94;1841179;77;25500;-67
2022/12/30 10:00:18;;;;;;;;;;;;;;;8.11;73.38;98766.08;1844486;77;27301;-67
2022/12/30 10:03:05;;;;;;;22.00;13.22;;;;;;;8.34;73.22;98765.48;1833837;77;25669;-66
2022/12/30 10:06:01;;;;;;;23.62;14.53;;;;;;;8.70;73.60;98770.44;1842196;77;25649;-66
2022/12/30 10:08:36;;;;;;;25.57;15.40;;;;;;;9.20;72.06;98770.39;1842024;77;25610;-66
2022/12/30 10:11:29;;;;;;;26.15;14.33;;;;;;;9.74;71.11;98769.91;1804331;77;25654;-66
2022/12/30 10:14:23;;;;;;;25.00;14.18;;;;;;;10.33;69.81;98771.09;1842786;77;27359;-67
2022/12/30 10:17:40;;;;;;;21.33;13.43;;;;;;;10.82;67.99;98777.36;1842334;77;25676;-67
2022/12/30 10:20:19;;;;;;;24.55;14.43;;;;;;;11.04;65.54;98791.63;1817134;77;25506;-67
2022/12/30 10:22:57;;;;;;;24.85;15.08;;;;;;;11.10;64.62;98781.33;1816625;77;26319;-67
2022/12/30 10:25:47;;;;;;;27.98;16.52;;;;;;;11.15;66.12;98780.39;1841427;77;25445;-67
2022/12/30 10:28:14;;;;;;;30.08;17.17;;;;;;;11.20;64.56;98781.61;1842477;77;27942;-67
2022/12/30 10:30:47;;;;;;;23.25;15.10;;;;;;;11.25;63.70;98780.11;1842351;77;25589;-67
2022/12/30 10:33:23;;;;;;;21.87;14.20;;;;;;;11.17;64.79;98780.31;1817167;77;25620;-67
2022/12/30 10:36:01;;;;;;;23.77;14.80;;;;;;;11.13;64.56;98787.56;1842717;77;25609;-67
2022/12/30 10:38:30;;;;;;;26.30;16.27;;;;;;;11.13;64.56;98787.56;1841731;77;25591;-67
2022/12/30 10:41:22;;;;;;;25.60;15.50;;;;;;;11.09;66.01;98785.20;1817071;77;27248;-67
2022/12/30 10:44:00;;;;;;;21.27;13.55;;;;;;;11.26;64.63;98793.28;1842238;77;25619;-67
2022/12/30 10:47:04;;;;;;;26.35;16.35;;;;;;;11.12;64.73;98786.50;1817206;77;25547;-65
2022/12/30 10:49:45;;;;;;;23.50;15.65;;;;;;;11.27;64.89;98799.00;1817203;78;25637;-67
2022/12/30 10:52:15;;;;;;;24.72;15.85;;;;;;;11.32;63.80;98804.92;1817427;78;25670;-66
2022/12/30 10:54:41;;;;;;;21.17;14.25;;;;;;;11.64;64.55;98801.03;1817639;78;27347;-67
2022/12/30 10:57:19;;;;;;;29.10;17.60;;;;;;;12.03;62.99;98803.22;1763387;78;25853;-67
2022/12/30 10:59:48;;;;;;;22.30;14.87;;;;;;;12.53;63.03;98804.75;1815860;78;25639;-67
2022/12/30 11:02:34;;;;;;;23.75;15.72;;;;;;;12.98;60.69;98793.16;1817083;78;26015;-67
2022/12/30 11:05:06;;;;;;;23.67;16.75;;;;;;;13.45;60.97;98794.89;1788108;79;25723;-67
2022/12/30 11:07:29;;;;;;;17.90;13.18;;;;;;;14.01;60.04;98787.10;1810501;79;25800;-67
2022/12/30 11:10:14;;;;;;;26.70;16.62;;;;;;;14.31;57.06;98789.84;1757846;79;25569;-67
2022/12/30 11:15:25;;;;;;;22.77;14.95;;;;;;;14.77;57.69;98789.92;1765895;79;25684;-67
2022/12/30 11:17:55;;;;;;;20.68;13.58;;;;;;;15.04;55.26;98782.81;1783968;79;25495;-69
2022/12/30 11:20:39;;;;;;;16.93;12.47;;;;;;;15.03;54.82;98789.48;1785216;79;27391;-68
2022/12/30 11:23:29;;;;;;;18.62;13.25;;;;;;;15.20;54.91;98784.92;1811993;79;25546;-66
2022/12/30 11:25:58;;;;;;;16.02;12.18;;;;;;;15.48;53.28;98787.02;1788526;79;25450;-66
2022/12/30 11:28:32;;;;;;;18.70;13.48;;;;;;;15.40;53.56;98785.41;1796039;79;25576;-66
2022/12/30 11:31:08;;;;;;;18.55;13.65;;;;;;;15.55;50.38;98787.27;1796219;79;25430;-67
2022/12/30 11:33:48;;;;;;;17.12;13.22;;;;;;;15.64;52.50;98788.53;1779775;79;27325;-66
2022/12/30 11:36:29;;;;;;;18.27;13.08;;;;;;;15.86;53.22;98797.53;1795923;79;25466;-66
2022/12/30 11:38:57;;;;;;;;;;;;;;;15.99;52.68;98788.66;1782516;79;25648;-67
2022/12/30 11:41:27;;;;;;;17.45;12.50;;;;;;;16.11;51.64;98790.03;1763765;79;25526;-67
2022/12/30 11:44:02;;;;;;;19.75;13.55;;;;;;;16.12;52.40;98792.23;1730051;79;25735;-65
2022/12/30 11:46:36;;;;;;;19.45;13.03;;;;;;;15.92;51.57;98796.14;1780152;79;27295;-65
2022/12/30 11:49:07;;;;;;;18.25;13.55;;;;;;;15.51;51.21;98791.28;1780223;79;25749;-66
2022/12/30 11:51:52;;;;;;;23.73;15.40;;;;;;;15.28;52.30;98790.91;1752150;79;25609;-66
2022/12/30 11:54:30;;;;;;;17.35;12.28;;;;;;;15.07;52.49;98788.21;1780045;79;25762;-66
2022/12/30 11:57:37;;;;;;;18.67;12.80;;;;;;;14.59;52.08;98787.89;1780860;79;25724;-67
2022/12/30 12:00:21;;;;;;;16.80;11.97;;;;;;;14.30;52.69;98782.70;1778898;79;27348;-65
2022/12/30 12:03:10;;;;;;;17.17;12.82;;;;;;;14.45;52.94;98778.52;1795536;79;25591;-66
2022/12/30 12:05:42;;;;;;;20.20;14.07;;;;;;;14.61;52.48;98776.53;1796853;78;25707;-66
2022/12/30 12:08:33;;;;;;;18.52;13.58;;;;;;;14.72;52.20;98774.98;1790357;78;25495;-65
2022/12/30 12:11:04;;;;;;;20.80;14.68;;;;;;;14.85;51.55;98770.33;1816403;78;25513;-66
2022/12/30 12:13:59;;;;;;;17.80;13.60;;;;;;;15.18;52.28;98776.98;1817244;77;27289;-65
2022/12/30 12:16:46;;;;;;;16.42;12.33;;;;;;;15.52;50.90;98781.06;1840147;78;25670;-65
2022/12/30 12:19:23;;;;;;;16.23;11.50;;;;;;;15.75;49.38;98783.36;1839848;77;25673;-69
2022/12/30 12:21:54;;;;;;;15.15;11.12;;;;;;;15.75;49.42;98791.66;1840599;77;26401;-66
2022/12/30 12:24:37;;;;;;;15.40;11.38;;;;;;;15.67;48.69;98794.76;1840622;77;25665;-69
2022/12/30 12:27:14;;;;;;;15.15;11.60;;;;;;;15.70;47.37;98797.39;1844604;77;27517;-66
2022/12/30 12:29:41;;;;;;;15.60;10.90;;;;;;;15.71;48.01;98799.81;1816902;78;25478;-66
2022/12/30 12:33:07;;;;;;;19.40;12.18;;;;;;;15.33;47.56;98792.64;1788833;76;25670;-68
2022/12/30 12:35:47;;;;;;;16.73;12.10;;;;;;;15.39;49.26;98792.08;1820709;77;25887;-65
2022/12/30 12:38:28;;;;;;;19.05;12.65;;;;;;;15.33;47.69;98793.45;1830647;77;25267;-65
2022/12/30 12:41:01;;;;;;;;;;;;;;;15.49;48.53;98792.79;1840209;77;27526;-65
2022/12/30 12:43:45;;;;;;;19.30;14.03;;;;;;;15.66;47.82;98782.89;1837129;77;25686;-65